createdAt,value
2022-10-26T00:01:14.909Z,1.40
2022-10-26T00:06:20.268Z,1.42
2022-10-26T00:11:21.628Z,1.65
2022-10-26T00:16:25.013Z,1.30
2022-10-26T00:21:26.893Z,1.50
2022-10-26T00:26:28.249Z,1.48
2022-10-26T00:31:29.640Z,1.20
2022-10-26T00:36:31.021Z,1.25
2022-10-26T00:41:33.569Z,1.60
2022-10-26T00:46:36.066Z,1.23
2022-10-26T00:51:39.623Z,1.20
2022-10-26T00:56:42.159Z,1.15
2022-10-26T01:01:44.791Z,1.45
2022-10-26T01:06:46.203Z,1.30
2022-10-26T01:11:47.565Z,1.20
2022-10-26T01:22:19.232Z,1.48
2022-10-26T01:27:22.284Z,1.20
2022-10-26T01:32:26.949Z,1.27
2022-10-26T01:37:30.628Z,1.05
2022-10-26T01:42:32.063Z,1.33
2022-10-26T01:47:33.750Z,1.15
2022-10-26T01:52:35.127Z,1.30
2022-10-26T01:57:36.513Z,1.27
2022-10-26T02:02:54.877Z,1.15
2022-10-26T02:08:19.411Z,1.08
2022-10-26T02:13:21.782Z,1.13
2022-10-26T02:18:43.276Z,1.10
2022-10-26T02:23:45.688Z,1.00
2022-10-26T02:28:49.621Z,1.00
2022-10-26T02:33:51.360Z,1.20
2022-10-26T02:38:52.992Z,1.20
2022-10-26T02:44:28.634Z,1.17
2022-10-26T02:49:32.682Z,0.88
2022-10-26T02:54:47.632Z,1.08
2022-10-26T02:59:49.005Z,0.90
2022-10-26T03:04:50.475Z,1.08
2022-10-26T03:09:51.837Z,0.80
2022-10-26T03:14:53.192Z,0.90
2022-10-26T03:19:55.973Z,1.30
2022-10-26T03:24:57.378Z,1.20
2022-10-26T03:29:58.804Z,1.10
2022-10-26T03:35:00.167Z,1.10
2022-10-26T03:40:01.529Z,1.20
2022-10-26T03:45:03.420Z,1.00
2022-10-26T03:55:07.832Z,1.02
2022-10-26T04:00:11.048Z,0.95
2022-10-26T04:05:12.464Z,0.90
2022-10-26T04:10:13.832Z,1.10
2022-10-26T04:15:15.323Z,0.85
2022-10-26T04:20:16.777Z,0.90
2022-10-26T04:25:18.136Z,1.00
2022-10-26T04:30:19.573Z,0.80
2022-10-26T04:35:20.952Z,0.80
2022-10-26T04:40:22.313Z,0.70
2022-10-26T04:45:23.701Z,0.60
2022-10-26T04:50:27.653Z,1.00
2022-10-26T04:55:29.812Z,0.80
2022-10-26T05:00:32.639Z,0.70
2022-10-26T05:05:35.005Z,0.70
2022-10-26T05:10:36.848Z,0.80
2022-10-26T05:15:38.208Z,0.80
2022-10-26T05:20:41.848Z,0.80
2022-10-26T05:25:43.209Z,0.63
2022-10-26T05:30:45.436Z,1.40
2022-10-26T05:35:47.454Z,0.90
2022-10-26T05:40:51.892Z,0.90
2022-10-26T05:45:53.692Z,1.35
2022-10-26T05:50:55.076Z,1.30
2022-10-26T05:55:56.835Z,1.20
2022-10-26T06:01:11.368Z,1.20
2022-10-26T06:06:13.244Z,0.90
2022-10-26T06:11:14.859Z,0.90
2022-10-26T06:16:36.593Z,0.95
2022-10-26T06:21:47.797Z,0.90
2022-10-26T06:27:14.585Z,1.05
2022-10-26T06:32:18.513Z,1.00
2022-10-26T06:37:19.872Z,1.13
2022-10-26T06:42:21.477Z,0.90
2022-10-26T06:47:33.995Z,1.00
2022-10-26T06:52:44.147Z,1.33
2022-10-26T06:57:45.505Z,1.00
2022-10-26T07:02:48.248Z,1.05
2022-10-26T07:07:50.094Z,0.95
2022-10-26T07:12:51.666Z,0.90
2022-10-26T07:17:53.213Z,1.00
2022-10-26T07:22:54.963Z,1.10
2022-10-26T07:27:59.400Z,1.50
2022-10-26T07:33:04.813Z,1.75
2022-10-26T07:38:06.340Z,1.63
2022-10-26T07:43:07.707Z,1.25
2022-10-26T07:48:08.884Z,1.13
2022-10-26T07:53:10.245Z,1.40
2022-10-26T07:58:11.609Z,1.60
2022-10-26T08:03:12.974Z,1.50
2022-10-26T08:08:14.335Z,1.33
2022-10-26T08:13:15.753Z,1.60
2022-10-26T08:18:17.110Z,1.50
2022-10-26T08:23:18.513Z,1.70
2022-10-26T08:28:19.868Z,1.40
2022-10-26T08:33:21.301Z,1.80
2022-10-26T08:38:22.662Z,1.60
2022-10-26T08:43:26.030Z,1.95
2022-10-26T08:48:29.466Z,1.92
2022-10-26T08:53:49.505Z,1.90
2022-10-26T08:59:09.873Z,1.80
2022-10-26T09:04:12.085Z,1.90
2022-10-26T09:09:17.149Z,1.77
2022-10-26T09:14:40.506Z,1.80
2022-10-26T09:19:51.007Z,2.00
2022-10-26T09:24:54.246Z,2.20
2022-10-26T09:30:04.878Z,2.38
2022-10-26T09:35:20.304Z,2.45
2022-10-26T09:40:23.019Z,2.30
2022-10-26T09:45:28.769Z,2.15
2022-10-26T09:50:37.342Z,2.00
2022-10-26T09:55:41.221Z,1.90
2022-10-26T10:00:42.607Z,2.08
2022-10-26T10:05:52.386Z,1.80
2022-10-26T10:11:12.841Z,2.10
2022-10-26T10:16:20.678Z,2.13
2022-10-26T10:21:31.890Z,2.10
2022-10-26T10:26:33.273Z,2.28
2022-10-26T10:31:34.643Z,2.08
2022-10-26T10:36:36.005Z,2.10
2022-10-26T10:41:37.394Z,1.98
2022-10-26T10:46:38.814Z,1.80
2022-10-26T10:51:40.210Z,1.90
2022-10-26T10:56:42.523Z,1.83
2022-10-26T11:01:48.767Z,1.80
2022-10-26T11:06:50.215Z,2.20
2022-10-26T11:11:55.516Z,1.92
2022-10-26T11:17:16.412Z,2.05
2022-10-26T11:22:22.193Z,2.00
2022-10-26T11:27:34.445Z,1.63
2022-10-26T11:32:44.989Z,2.30
2022-10-26T11:37:51.749Z,1.88
2022-10-26T11:43:11.296Z,1.70
2022-10-26T11:48:32.263Z,1.67
2022-10-26T11:53:37.838Z,1.58
2022-10-26T11:58:39.208Z,2.00
2022-10-26T12:03:48.357Z,1.38
2022-10-26T12:08:54.224Z,1.17
2022-10-26T12:19:04.489Z,1.38
2022-10-26T12:24:26.427Z,1.30
2022-10-26T12:29:36.809Z,1.05
2022-10-26T12:34:38.293Z,1.40
2022-10-26T12:39:43.122Z,1.50
2022-10-26T12:44:47.221Z,1.02
2022-10-26T12:50:06.571Z,1.10
2022-10-26T12:55:35.010Z,1.30
2022-10-26T13:00:39.296Z,0.90
2022-10-26T13:05:46.247Z,1.10
2022-10-26T13:11:07.248Z,0.98
2022-10-26T13:16:12.463Z,0.90
2022-10-26T13:21:14.856Z,1.20
2022-10-26T13:26:20.544Z,0.95
2022-10-26T13:31:31.234Z,0.90
2022-10-26T13:37:02.504Z,0.88
2022-10-26T13:42:03.899Z,0.80
2022-10-26T13:47:09.869Z,0.85
2022-10-26T13:52:21.301Z,0.80
2022-10-26T13:57:29.640Z,0.75
2022-10-26T14:02:31.000Z,0.70
2022-10-26T14:07:39.362Z,0.80
2022-10-26T14:12:40.810Z,1.00
2022-10-26T14:17:42.273Z,1.00
2022-10-26T14:22:43.628Z,1.15
2022-10-26T14:27:46.113Z,0.90
2022-10-26T14:32:47.715Z,1.00
2022-10-26T14:38:03.427Z,0.77
2022-10-26T14:43:05.183Z,2.10
2022-10-26T14:48:06.727Z,1.08
2022-10-26T14:53:14.992Z,1.10
2022-10-26T15:03:36.216Z,1.15
2022-10-26T15:08:52.250Z,1.17
2022-10-26T15:13:57.684Z,1.05
2022-10-26T15:19:01.149Z,1.13
2022-10-26T15:24:02.799Z,1.20
2022-10-26T15:29:04.153Z,1.38
2022-10-26T15:34:06.168Z,1.30
2022-10-26T15:39:07.594Z,1.42
2022-10-26T15:44:13.735Z,1.52
2022-10-26T15:49:17.181Z,1.50
2022-10-26T15:54:18.559Z,1.50
2022-10-26T15:59:20.424Z,1.40
2022-10-26T16:04:21.780Z,1.48
2022-10-26T16:09:23.139Z,1.58
2022-10-26T16:14:24.701Z,1.58
2022-10-26T16:19:31.371Z,1.70
2022-10-26T16:29:34.346Z,1.77
2022-10-26T16:34:35.705Z,1.80
2022-10-26T16:39:37.071Z,1.63
2022-10-26T16:44:38.500Z,1.77
2022-10-26T16:49:43.109Z,1.75
2022-10-26T16:54:44.488Z,2.10
2022-10-26T16:59:45.892Z,1.90
2022-10-26T17:04:47.261Z,2.25
2022-10-26T17:09:48.625Z,2.05
2022-10-26T17:14:50.296Z,2.20
2022-10-26T17:19:51.659Z,2.25
2022-10-26T17:24:53.012Z,2.30
2022-10-26T17:29:54.384Z,2.35
2022-10-26T17:34:55.769Z,2.25
2022-10-26T17:39:57.177Z,2.97
2022-10-26T17:44:58.552Z,2.67
2022-10-26T17:50:00.108Z,3.53
2022-10-26T17:55:02.721Z,2.72
2022-10-26T18:00:04.630Z,3.05
2022-10-26T18:05:07.769Z,3.25
2022-10-26T18:10:26.194Z,3.30
2022-10-26T18:15:30.924Z,3.13
2022-10-26T18:20:32.300Z,3.10
2022-10-26T18:25:33.785Z,2.90
2022-10-26T18:30:35.174Z,3.08
2022-10-26T18:35:36.553Z,3.35
2022-10-26T18:40:37.923Z,3.45
2022-10-26T18:45:39.369Z,3.15
2022-10-26T18:50:40.728Z,3.40
2022-10-26T18:55:42.332Z,3.22
2022-10-26T19:00:43.847Z,3.25
2022-10-26T19:05:45.840Z,3.42
2022-10-26T19:10:47.192Z,4.03
2022-10-26T19:15:48.565Z,3.88
2022-10-26T19:20:49.928Z,3.85
2022-10-26T19:25:55.341Z,3.80
2022-10-26T19:30:56.700Z,3.60
2022-10-26T19:36:00.153Z,3.63
2022-10-26T19:41:03.336Z,3.67
2022-10-26T19:46:12.120Z,4.28
2022-10-26T19:51:13.477Z,3.53
2022-10-26T19:56:14.945Z,4.03
2022-10-26T20:01:16.528Z,3.72
2022-10-26T20:06:18.206Z,3.65
2022-10-26T20:11:19.756Z,3.92
2022-10-26T20:16:21.121Z,3.80
2022-10-26T20:21:22.480Z,3.97
2022-10-26T20:26:27.455Z,4.15
2022-10-26T20:31:29.996Z,4.57
2022-10-26T20:36:31.365Z,3.80
2022-10-26T20:41:32.972Z,4.25
2022-10-26T20:46:34.471Z,4.43
2022-10-26T20:52:22.737Z,4.18
2022-10-26T20:57:28.219Z,4.00
2022-10-26T21:02:30.354Z,4.35
2022-10-26T21:07:31.720Z,4.35
2022-10-26T21:12:33.084Z,4.53
2022-10-26T21:17:34.514Z,4.10
2022-10-26T21:22:35.977Z,4.38
2022-10-26T21:27:37.339Z,4.53
2022-10-26T21:32:38.555Z,4.22
2022-10-26T21:37:39.909Z,4.30
2022-10-26T21:42:41.273Z,4.32
2022-10-26T21:47:42.645Z,4.28
2022-10-26T21:52:43.997Z,4.45
2022-10-26T21:57:45.227Z,4.88
2022-10-26T22:02:46.580Z,4.20
2022-10-26T22:07:48.188Z,3.90
2022-10-26T22:12:49.716Z,4.65
2022-10-26T22:17:51.310Z,4.80
2022-10-26T22:22:52.881Z,4.68
2022-10-26T22:27:54.268Z,4.85
2022-10-26T22:32:55.621Z,4.45
2022-10-26T22:37:56.987Z,5.20
2022-10-26T22:42:58.388Z,4.30
2022-10-26T22:47:59.789Z,5.18
2022-10-26T22:53:01.190Z,5.05
2022-10-26T22:58:02.557Z,4.50
2022-10-26T23:03:04.565Z,5.13
2022-10-26T23:08:05.930Z,4.95
2022-10-26T23:13:07.298Z,4.65
2022-10-26T23:18:08.684Z,5.55
2022-10-26T23:23:10.046Z,4.70
2022-10-26T23:28:11.420Z,4.70
2022-10-26T23:33:13.466Z,4.63
2022-10-26T23:38:14.822Z,4.85
2022-10-26T23:43:16.185Z,4.60
2022-10-26T23:48:19.060Z,4.75
2022-10-26T23:53:21.325Z,4.65
2022-10-26T23:58:22.680Z,4.80
